Terminal Aerodrome Forecast
Issued by NWS

Home | Current Version | Previous Version | Text Only | Print | Product List | Glossary On
Versions: 1 2 3 4 5 6 7 8 9 10 11 12 13
000
FTPA31 PHFO 191731
TAFHJH
TAF
PHJH 191731Z 1918/2018 04015G24KT P6SM VCSH FEW020 SCT030
     FM192000 05020G28KT P6SM VCSH FEW020 SCT030 SCT045
     FM200700 05016G22KT P6SM VCSH FEW020 SCT030 SCT045
      AMD NOT SKED 2004/2016=

USA.gov is the U.S. government's official web portal to all federal, state and local government web resources and services.